Noordam — PHET — position and weather

sailwx.info

Track history (hours):
 
Tides and Currents Weather Stations Pressure Air Temp Water Temp Dewpoint Dewpoint Depression Visibility Wind Speed Wind Dir Waves Ship Positions

Noordam (Netherlands)

Ship's website: http://www.hollandamerica.com/cruiseships/Noordam

Last reported at 2017-Nov-24 21:58 UTC. Time now 2017-Nov-24 22:24 UTC.
Position S 42°53' E 147°20'.

Type: Passenger vessel. MMSI: 246028000.

Date/timePositionNaut miles runAvg speedWind from/ knotsBaromVisibWave heightAir tempDewpointWater temp
2017-Nov-24 21:58S 42°53' E 147°20'0 0.0
2017-Nov-24 21:28S 42°53' E 147°20'0 0.0
2017-Nov-24 20:55S 42°53' E 147°20'0 0.0
2017-Nov-24 20:30S 42°53' E 147°20'0 0.5
2017-Nov-24 20:00S 42°53' E 147°21'1610.4
2017-Nov-24 18:29S 43°08' E 147°29'814.9
2017-Nov-24 17:59S 43°12' E 147°37'1615.0
2017-Nov-24 16:56S 43°18' E 147°57'3317.1
2017-Nov-24 15:00S 42°48' E 148°18'18313.1 150 / 131015.3 2.2 16.016.016.0
2017-Nov-24 01:00S 40°00' E 146°42'13714.0 010 / 61014.1 0.5 16.616.317.3
2017-Nov-23 15:15S 38°18' E 144°44'2 6.4
2017-Nov-23 15:00S 38°18' E 144°42'1317.3 180 / 121010.9 5.4 17.112.620.5
2017-Nov-23 14:15S 38°10' E 144°55'519.2
2017-Nov-23 14:01S 38°06' E 144°55'918.3
2017-Nov-23 13:31S 37°56' E 144°56'611.3
2017-Nov-23 13:00S 37°51' E 144°56'0 0.0
2017-Nov-23 12:30S 37°51' E 144°56'0 0.0
2017-Nov-23 11:45S 37°51' E 144°56'0 0.0
2017-Nov-23 11:15S 37°51' E 144°56'0 0.0
2017-Nov-23 10:49S 37°51' E 144°56'0 0.0
2017-Nov-23 10:30S 37°51' E 144°56'0 0.0
2017-Nov-23 09:36S 37°51' E 144°56'0 0.0
2017-Nov-23 09:30S 37°51' E 144°56'0 0.0
2017-Nov-23 06:37S 37°51' E 144°56'0 0.0
2017-Nov-23 06:25S 37°51' E 144°56'0 0.0
2017-Nov-23 05:03S 37°51' E 144°56'0 0.0
2017-Nov-23 04:42S 37°51' E 144°56'0 0.0
2017-Nov-23 03:24S 37°51' E 144°56'0 0.0
2017-Nov-23 02:57S 37°51' E 144°56'0 0.0
2017-Nov-23 02:31S 37°51' E 144°56'0 0.0
2017-Nov-23 01:04S 37°51' E 144°56'0 0.0
2017-Nov-22 23:21S 37°51' E 144°56'0 0.0
2017-Nov-22 23:00S 37°51' E 144°56'0 0.0
2017-Nov-22 21:15S 37°51' E 144°56'0 0.0
2017-Nov-22 20:54S 37°51' E 144°56'0 0.4
2017-Nov-22 20:26S 37°51' E 144°56'3 4.7
2017-Nov-22 19:45S 37°54' E 144°56'3 9.0
2017-Nov-22 19:24S 37°57' E 144°55'39 8.8
2017-Nov-22 15:00S 38°36' E 145°00'7214.4 110 / 181011.6 5.4 17.115.818.0
2017-Nov-22 10:00S 39°06' E 146°24'14416.0 070 / 161015.610.8 17.114.216.0
2017-Nov-22 01:00S 38°06' E 149°12'15815.8 070 / 251018.410.8 21.115.417.2
2017-Nov-21 15:00S 35°48' E 150°48'75 3.1 050 / 71021.3 5.4 18.013.719.0
2017-Nov-20 15:00S 34°36' E 151°12'3712.4 090 / 201023.8 5.4 19.013.417.0
2017-Nov-20 12:00S 35°12' E 151°00'197 8.0 110 / 171023.210.8 18.017.017.0
2017-Nov-19 11:26S 38°12' E 149°19'612.7
2017-Nov-19 10:59S 38°15' E 149°13'612.4
2017-Nov-19 10:30S 38°18' E 149°06'612.0
2017-Nov-19 10:00S 38°22' E 149°00'611.7
2017-Nov-19 09:30S 38°25' E 148°54'611.6
2017-Nov-19 09:00S 38°29' E 148°48'611.8
2017-Nov-19 08:30S 38°32' E 148°42'611.8
2017-Nov-19 07:59S 38°36' E 148°36'611.9
2017-Nov-19 07:30S 38°39' E 148°30'1211.7
2017-Nov-19 06:26S 38°46' E 148°17'511.0
2017-Nov-19 06:00S 38°48' E 148°11'7549.1
2017-Nov-19 06:00S 38°42' E 148°06'715.2 070 / 181020.810.8 17.916.816.0
2017-Nov-19 05:30S 38°49' E 148°05'15 9.7
2017-Nov-19 03:58S 38°54' E 147°47'5 9.5
2017-Nov-19 03:29S 38°56' E 147°41'9 9.4
2017-Nov-19 02:32S 38°59' E 147°31'1 9.4
2017-Nov-19 02:27S 38°59' E 147°30'6 9.2
2017-Nov-19 01:51S 39°01' E 147°23'3 9.2
2017-Nov-19 01:29S 39°02' E 147°19'47 9.3
2017-Nov-18 20:30S 39°17' E 146°22'1510.1
2017-Nov-18 19:00S 39°12' E 146°03'1310.8
2017-Nov-18 17:47S 39°07' E 145°48'311.0
2017-Nov-18 17:30S 39°05' E 145°45'3413.7
2017-Nov-18 15:00S 38°42' E 145°12'31 5.3 090 / 181018.1 5.4 17.016.517.0
2017-Nov-18 09:12S 38°14' E 144°55'618.9
2017-Nov-18 08:54S 38°09' E 144°55'719.0
2017-Nov-18 08:30S 38°01' E 144°55'814.9
2017-Nov-18 07:57S 37°53' E 144°56'2 1.0
2017-Nov-18 05:43S 37°51' E 144°56'0 0.0
2017-Nov-18 05:13S 37°51' E 144°56'0 0.0
2017-Nov-18 04:58S 37°51' E 144°56'0 0.0
2017-Nov-18 04:01S 37°51' E 144°56'0 0.0
2017-Nov-18 03:58S 37°51' E 144°56'0 0.0
2017-Nov-18 03:25S 37°51' E 144°56'0 0.0
2017-Nov-18 02:52S 37°51' E 144°56'0 0.0
2017-Nov-18 02:25S 37°51' E 144°56'0 0.0
2017-Nov-18 01:34S 37°51' E 144°56'0 0.0
2017-Nov-18 01:28S 37°51' E 144°56'0 0.0
2017-Nov-18 00:58S 37°51' E 144°56'0 0.0
2017-Nov-18 00:25S 37°51' E 144°56'0 0.0
2017-Nov-17 23:49S 37°51' E 144°56'0 0.0
2017-Nov-17 22:31S 37°51' E 144°56'0 0.0
2017-Nov-17 21:22S 37°51' E 144°56'0 0.0
2017-Nov-17 20:52S 37°51' E 144°56'0 0.0
2017-Nov-17 20:19S 37°51' E 144°56'0 0.6
2017-Nov-17 19:55S 37°51' E 144°56'4 9.8
2017-Nov-17 19:30S 37°55' E 144°56'816.0
2017-Nov-17 19:00S 38°03' E 144°55'918.3
2017-Nov-17 18:30S 38°12' E 144°55'815.6
2017-Nov-17 17:59S 38°20' E 144°53'56451.2
2017-Nov-17 07:00S 40°00' E 156°48'37954.1 080 / 231016.810.8 16.816.015.0
2017-Nov-17 00:00S 41°00' E 148°36'3015.0 080 / 231022.110.8 17.317.116.0
2017-Nov-16 22:00S 41°30' E 148°36'4214.0 070 / 181021.5 5.4 17.116.916.3
2017-Nov-16 19:00S 42°12' E 148°36'6616.4 080 / 191021.2 5.4 15.215.015.7
2017-Nov-16 15:00S 43°12' E 148°00'1511.2 100 / 211023.4 5.4 13.012.413.0
2017-Nov-16 13:38S 43°14' E 147°39'1915.0
2017-Nov-16 12:24S 43°00' E 147°22'613.2
2017-Nov-16 11:56S 42°54' E 147°22'2 3.9
2017-Nov-16 11:30S 42°53' E 147°20'0 0.0
2017-Nov-16 10:57S 42°53' E 147°20'0 0.0
2017-Nov-16 10:27S 42°53' E 147°20'0 0.0
2017-Nov-16 09:57S 42°53' E 147°20'0 0.0
2017-Nov-16 09:27S 42°53' E 147°20'0 0.0
2017-Nov-16 08:57S 42°53' E 147°20'0 0.0
2017-Nov-16 08:27S 42°53' E 147°20'0 0.0
2017-Nov-16 08:00S 42°53' E 147°20'0 0.0
2017-Nov-16 07:28S 42°53' E 147°20'0 0.0
2017-Nov-16 07:00S 42°53' E 147°20'0 0.0
2017-Nov-16 06:30S 42°53' E 147°20'0 0.0
2017-Nov-16 06:00S 42°53' E 147°20'0 0.0
2017-Nov-16 05:30S 42°53' E 147°20'0 0.0
2017-Nov-16 04:57S 42°53' E 147°20'0 0.0
2017-Nov-16 04:27S 42°53' E 147°20'0 0.0
2017-Nov-16 03:54S 42°53' E 147°20'0 0.0
2017-Nov-16 03:30S 42°53' E 147°20'0 0.0
2017-Nov-16 03:00S 42°53' E 147°20'0 0.0
2017-Nov-16 02:27S 42°53' E 147°20'0 0.0
2017-Nov-16 02:00S 42°53' E 147°20'0 0.0
2017-Nov-16 01:27S 42°53' E 147°20'0 0.0
2017-Nov-16 00:57S 42°53' E 147°20'0 0.0
2017-Nov-16 00:27S 42°53' E 147°20'0 0.0
2017-Nov-15 23:57S 42°53' E 147°20'0 0.0
2017-Nov-15 23:27S 42°53' E 147°20'0 0.0
2017-Nov-15 22:57S 42°53' E 147°20'0 0.0
2017-Nov-15 22:27S 42°53' E 147°20'0 0.0
2017-Nov-15 21:57S 42°53' E 147°20'0 0.0
2017-Nov-15 21:27S 42°53' E 147°20'0 0.0
2017-Nov-15 20:54S 42°53' E 147°20'0 0.0
2017-Nov-15 20:30S 42°53' E 147°20'0 0.0
2017-Nov-15 20:00S 42°53' E 147°20'0 0.1
2017-Nov-15 19:30S 42°53' E 147°20'16 9.6
2017-Nov-15 17:53S 43°08' E 147°28'512.8
2017-Nov-15 17:30S 43°11' E 147°33'712.9
2017-Nov-15 16:55S 43°16' E 147°40'612.9
2017-Nov-15 16:29S 43°20' E 147°45'20913.5
2017-Nov-15 01:00S 43°54' E 152°30'   010 / 451015.310.8 15.912.113.0
Track history (hours):
 
Tides and Currents Weather Stations Pressure Air Temp Water Temp Dewpoint Dewpoint Depression Visibility Wind Speed Wind Dir Waves Ship Positions

Noordam (Netherlands)

Ship's website: http://www.hollandamerica.com/cruiseships/Noordam

Last reported at 2017-Nov-24 21:58 UTC. Time now 2017-Nov-24 22:24 UTC.
Position S 42°53' E 147°20'.

Type: Passenger vessel. MMSI: 246028000.

Date/timePositionNaut miles runAvg speedWind from/ knotsBaromVisibWave heightAir tempDewpointWater temp
2017-Nov-24 21:58S 42°53' E 147°20'0 0.0
2017-Nov-24 21:28S 42°53' E 147°20'0 0.0
2017-Nov-24 20:55S 42°53' E 147°20'0 0.0
2017-Nov-24 20:30S 42°53' E 147°20'0 0.5
2017-Nov-24 20:00S 42°53' E 147°21'1610.4
2017-Nov-24 18:29S 43°08' E 147°29'814.9
2017-Nov-24 17:59S 43°12' E 147°37'1615.0
2017-Nov-24 16:56S 43°18' E 147°57'3317.1
2017-Nov-24 15:00S 42°48' E 148°18'18313.1 150 / 131015.3 2.2 16.016.016.0
2017-Nov-24 01:00S 40°00' E 146°42'13714.0 010 / 61014.1 0.5 16.616.317.3
2017-Nov-23 15:15S 38°18' E 144°44'2 6.4
2017-Nov-23 15:00S 38°18' E 144°42'1317.3 180 / 121010.9 5.4 17.112.620.5
2017-Nov-23 14:15S 38°10' E 144°55'519.2
2017-Nov-23 14:01S 38°06' E 144°55'918.3
2017-Nov-23 13:31S 37°56' E 144°56'611.3
2017-Nov-23 13:00S 37°51' E 144°56'0 0.0
2017-Nov-23 12:30S 37°51' E 144°56'0 0.0
2017-Nov-23 11:45S 37°51' E 144°56'0 0.0
2017-Nov-23 11:15S 37°51' E 144°56'0 0.0
2017-Nov-23 10:49S 37°51' E 144°56'0 0.0
2017-Nov-23 10:30S 37°51' E 144°56'0 0.0
2017-Nov-23 09:36S 37°51' E 144°56'0 0.0
2017-Nov-23 09:30S 37°51' E 144°56'0 0.0
2017-Nov-23 06:37S 37°51' E 144°56'0 0.0
2017-Nov-23 06:25S 37°51' E 144°56'0 0.0
2017-Nov-23 05:03S 37°51' E 144°56'0 0.0
2017-Nov-23 04:42S 37°51' E 144°56'0 0.0
2017-Nov-23 03:24S 37°51' E 144°56'0 0.0
2017-Nov-23 02:57S 37°51' E 144°56'0 0.0
2017-Nov-23 02:31S 37°51' E 144°56'0 0.0
2017-Nov-23 01:04S 37°51' E 144°56'0 0.0
2017-Nov-22 23:21S 37°51' E 144°56'0 0.0
2017-Nov-22 23:00S 37°51' E 144°56'0 0.0
2017-Nov-22 21:15S 37°51' E 144°56'0 0.0
2017-Nov-22 20:54S 37°51' E 144°56'0 0.4
2017-Nov-22 20:26S 37°51' E 144°56'3 4.7
2017-Nov-22 19:45S 37°54' E 144°56'3 9.0
2017-Nov-22 19:24S 37°57' E 144°55'39 8.8
2017-Nov-22 15:00S 38°36' E 145°00'7214.4 110 / 181011.6 5.4 17.115.818.0
2017-Nov-22 10:00S 39°06' E 146°24'14416.0 070 / 161015.610.8 17.114.216.0
2017-Nov-22 01:00S 38°06' E 149°12'15815.8 070 / 251018.410.8 21.115.417.2
2017-Nov-21 15:00S 35°48' E 150°48'75 3.1 050 / 71021.3 5.4 18.013.719.0
2017-Nov-20 15:00S 34°36' E 151°12'3712.4 090 / 201023.8 5.4 19.013.417.0
2017-Nov-20 12:00S 35°12' E 151°00'197 8.0 110 / 171023.210.8 18.017.017.0
2017-Nov-19 11:26S 38°12' E 149°19'612.7
2017-Nov-19 10:59S 38°15' E 149°13'612.4
2017-Nov-19 10:30S 38°18' E 149°06'612.0
2017-Nov-19 10:00S 38°22' E 149°00'611.7
2017-Nov-19 09:30S 38°25' E 148°54'611.6
2017-Nov-19 09:00S 38°29' E 148°48'611.8
2017-Nov-19 08:30S 38°32' E 148°42'611.8
2017-Nov-19 07:59S 38°36' E 148°36'611.9
2017-Nov-19 07:30S 38°39' E 148°30'1211.7
2017-Nov-19 06:26S 38°46' E 148°17'511.0
2017-Nov-19 06:00S 38°48' E 148°11'7549.1
2017-Nov-19 06:00S 38°42' E 148°06'715.2 070 / 181020.810.8 17.916.816.0
2017-Nov-19 05:30S 38°49' E 148°05'15 9.7
2017-Nov-19 03:58S 38°54' E 147°47'5 9.5
2017-Nov-19 03:29S 38°56' E 147°41'9 9.4
2017-Nov-19 02:32S 38°59' E 147°31'1 9.4
2017-Nov-19 02:27S 38°59' E 147°30'6 9.2
2017-Nov-19 01:51S 39°01' E 147°23'3 9.2
2017-Nov-19 01:29S 39°02' E 147°19'47 9.3
2017-Nov-18 20:30S 39°17' E 146°22'1510.1
2017-Nov-18 19:00S 39°12' E 146°03'1310.8
2017-Nov-18 17:47S 39°07' E 145°48'311.0
2017-Nov-18 17:30S 39°05' E 145°45'3413.7
2017-Nov-18 15:00S 38°42' E 145°12'31 5.3 090 / 181018.1 5.4 17.016.517.0
2017-Nov-18 09:12S 38°14' E 144°55'618.9
2017-Nov-18 08:54S 38°09' E 144°55'719.0
2017-Nov-18 08:30S 38°01' E 144°55'814.9
2017-Nov-18 07:57S 37°53' E 144°56'2 1.0
2017-Nov-18 05:43S 37°51' E 144°56'0 0.0
2017-Nov-18 05:13S 37°51' E 144°56'0 0.0
2017-Nov-18 04:58S 37°51' E 144°56'0 0.0
2017-Nov-18 04:01S 37°51' E 144°56'0 0.0
2017-Nov-18 03:58S 37°51' E 144°56'0 0.0
2017-Nov-18 03:25S 37°51' E 144°56'0 0.0
2017-Nov-18 02:52S 37°51' E 144°56'0 0.0
2017-Nov-18 02:25S 37°51' E 144°56'0 0.0
2017-Nov-18 01:34S 37°51' E 144°56'0 0.0
2017-Nov-18 01:28S 37°51' E 144°56'0 0.0
2017-Nov-18 00:58S 37°51' E 144°56'0 0.0
2017-Nov-18 00:25S 37°51' E 144°56'0 0.0
2017-Nov-17 23:49S 37°51' E 144°56'0 0.0
2017-Nov-17 22:31S 37°51' E 144°56'0 0.0
2017-Nov-17 21:22S 37°51' E 144°56'0 0.0
2017-Nov-17 20:52S 37°51' E 144°56'0 0.0
2017-Nov-17 20:19S 37°51' E 144°56'0 0.6
2017-Nov-17 19:55S 37°51' E 144°56'4 9.8
2017-Nov-17 19:30S 37°55' E 144°56'816.0
2017-Nov-17 19:00S 38°03' E 144°55'918.3
2017-Nov-17 18:30S 38°12' E 144°55'815.6
2017-Nov-17 17:59S 38°20' E 144°53'56451.2
2017-Nov-17 07:00S 40°00' E 156°48'37954.1 080 / 231016.810.8 16.816.015.0
2017-Nov-17 00:00S 41°00' E 148°36'3015.0 080 / 231022.110.8 17.317.116.0
2017-Nov-16 22:00S 41°30' E 148°36'4214.0 070 / 181021.5 5.4 17.116.916.3
2017-Nov-16 19:00S 42°12' E 148°36'6616.4 080 / 191021.2 5.4 15.215.015.7
2017-Nov-16 15:00S 43°12' E 148°00'1511.2 100 / 211023.4 5.4 13.012.413.0
2017-Nov-16 13:38S 43°14' E 147°39'1915.0
2017-Nov-16 12:24S 43°00' E 147°22'613.2
2017-Nov-16 11:56S 42°54' E 147°22'2 3.9
2017-Nov-16 11:30S 42°53' E 147°20'0 0.0
2017-Nov-16 10:57S 42°53' E 147°20'0 0.0
2017-Nov-16 10:27S 42°53' E 147°20'0 0.0
2017-Nov-16 09:57S 42°53' E 147°20'0 0.0
2017-Nov-16 09:27S 42°53' E 147°20'0 0.0
2017-Nov-16 08:57S 42°53' E 147°20'0 0.0
2017-Nov-16 08:27S 42°53' E 147°20'0 0.0
2017-Nov-16 08:00S 42°53' E 147°20'0 0.0
2017-Nov-16 07:28S 42°53' E 147°20'0 0.0
2017-Nov-16 07:00S 42°53' E 147°20'0 0.0
2017-Nov-16 06:30S 42°53' E 147°20'0 0.0
2017-Nov-16 06:00S 42°53' E 147°20'0 0.0
2017-Nov-16 05:30S 42°53' E 147°20'0 0.0
2017-Nov-16 04:57S 42°53' E 147°20'0 0.0
2017-Nov-16 04:27S 42°53' E 147°20'0 0.0
2017-Nov-16 03:54S 42°53' E 147°20'0 0.0
2017-Nov-16 03:30S 42°53' E 147°20'0 0.0
2017-Nov-16 03:00S 42°53' E 147°20'0 0.0
2017-Nov-16 02:27S 42°53' E 147°20'0 0.0
2017-Nov-16 02:00S 42°53' E 147°20'0 0.0
2017-Nov-16 01:27S 42°53' E 147°20'0 0.0
2017-Nov-16 00:57S 42°53' E 147°20'0 0.0
2017-Nov-16 00:27S 42°53' E 147°20'0 0.0
2017-Nov-15 23:57S 42°53' E 147°20'0 0.0
2017-Nov-15 23:27S 42°53' E 147°20'0 0.0
2017-Nov-15 22:57S 42°53' E 147°20'0 0.0
2017-Nov-15 22:27S 42°53' E 147°20'0 0.0
2017-Nov-15 21:57S 42°53' E 147°20'0 0.0
2017-Nov-15 21:27S 42°53' E 147°20'0 0.0
2017-Nov-15 20:54S 42°53' E 147°20'0 0.0
2017-Nov-15 20:30S 42°53' E 147°20'0 0.0
2017-Nov-15 20:00S 42°53' E 147°20'0 0.1
2017-Nov-15 19:30S 42°53' E 147°20'16 9.6
2017-Nov-15 17:53S 43°08' E 147°28'512.8
2017-Nov-15 17:30S 43°11' E 147°33'712.9
2017-Nov-15 16:55S 43°16' E 147°40'612.9
2017-Nov-15 16:29S 43°20' E 147°45'20913.5
2017-Nov-15 01:00S 43°54' E 152°30'   010 / 451015.310.8 15.912.113.0

Dump ship's entire track history